Time,TemperatureF,DewpointF,PressureIn,WindDirection,WindDirectionDegrees,WindSpeedMPH,WindSpeedGustMPH,Humidity,HourlyPrecipIn,Conditions,Clouds,dailyrainin,SoftwareType,DateUTC
2013-03-21 00:03:00,37.0,25.0,-100.00,NW,318,9.0,12.0,60,0.00,,,0.00,,2013-03-21 04:03:00,
2013-03-21 00:13:00,37.0,25.0,-100.00,NW,318,9.0,12.0,60,0.00,,,0.00,,2013-03-21 04:13:00,
2013-03-21 00:23:00,36.0,25.0,-100.00,NW,319,10.0,15.0,65,0.00,,,0.00,,2013-03-21 04:23:00,
2013-03-21 00:33:00,36.0,25.0,-100.00,NW,319,10.0,15.0,65,0.00,,,0.00,,2013-03-21 04:33:00,
2013-03-21 00:43:00,35.0,25.0,-100.00,NNW,343,10.0,12.0,66,0.00,,,0.00,,2013-03-21 04:43:00,
2013-03-21 00:53:00,35.0,25.0,-100.00,NNW,343,10.0,12.0,66,0.00,,,0.00,,2013-03-21 04:53:00,
2013-03-21 01:03:00,34.0,26.0,-100.00,NNW,335,9.0,11.0,70,0.00,,,0.00,,2013-03-21 05:03:00,
2013-03-21 01:13:00,34.0,26.0,-100.00,NNW,335,9.0,11.0,70,0.00,,,0.00,,2013-03-21 05:13:00,
2013-03-21 01:22:00,34.0,26.0,-100.00,NW,319,8.0,11.0,71,0.00,,,0.00,,2013-03-21 05:22:00,
2013-03-21 01:33:00,34.0,26.0,-100.00,NW,319,8.0,11.0,71,0.00,,,0.00,,2013-03-21 05:33:00,
2013-03-21 01:44:00,34.0,26.0,-100.00,NW,319,8.0,11.0,71,0.00,,,0.00,,2013-03-21 05:44:00,
2013-03-21 01:52:00,33.0,23.0,-100.00,NW,312,8.0,14.0,65,0.00,,,0.00,,2013-03-21 05:52:00,
2013-03-21 02:03:00,33.0,21.0,-100.00,NW,315,8.0,11.0,60,0.00,,,0.00,,2013-03-21 06:03:00,
2013-03-21 02:12:00,33.0,21.0,-100.00,NW,315,8.0,11.0,60,0.00,,,0.00,,2013-03-21 06:12:00,
2013-03-21 02:22:00,32.0,21.0,-100.00,NW,306,5.0,7.0,61,0.00,,,0.00,,2013-03-21 06:22:00,
2013-03-21 02:32:00,32.0,21.0,-100.00,NW,306,5.0,7.0,61,0.00,,,0.00,,2013-03-21 06:32:00,
2013-03-21 02:42:00,32.0,21.0,-100.00,NW,311,4.0,7.0,63,0.00,,,0.00,,2013-03-21 06:42:00,
2013-03-21 02:52:00,32.0,21.0,-100.00,NW,311,4.0,7.0,63,0.00,,,0.00,,2013-03-21 06:52:00,
2013-03-21 03:02:00,32.0,21.0,-100.00,NW,322,10.0,12.0,62,0.00,,,0.00,,2013-03-21 07:02:00,
2013-03-21 03:13:00,32.0,21.0,-100.00,NW,322,10.0,12.0,62,0.00,,,0.00,,2013-03-21 07:13:00,
2013-03-21 03:22:00,32.0,20.0,-100.00,NW,312,9.0,15.0,60,0.00,,,0.00,,2013-03-21 07:22:00,
2013-03-21 03:32:00,31.0,19.0,-100.00,NW,309,5.0,8.0,59,0.00,,,0.00,,2013-03-21 07:32:00,
2013-03-21 03:42:00,31.0,19.0,-100.00,NW,309,5.0,8.0,59,0.00,,,0.00,,2013-03-21 07:42:00,
2013-03-21 03:53:00,31.0,19.0,-100.00,NW,320,3.0,4.0,61,0.00,,,0.00,,2013-03-21 07:53:00,
2013-03-21 04:02:00,31.0,19.0,-100.00,NW,320,3.0,4.0,61,0.00,,,0.00,,2013-03-21 08:02:00,
2013-03-21 04:13:00,31.0,19.0,-100.00,NW,320,3.0,4.0,61,0.00,,,0.00,,2013-03-21 08:13:00,
2013-03-21 04:23:00,31.0,19.0,-100.00,NW,320,3.0,4.0,61,0.00,,,0.00,,2013-03-21 08:23:00,
2013-03-21 04:33:00,30.0,18.0,-100.00,NNW,343,6.0,9.0,61,0.00,,,0.00,,2013-03-21 08:33:00,
2013-03-21 04:42:00,30.0,18.0,-100.00,NW,322,10.0,13.0,60,0.00,,,0.00,,2013-03-21 08:42:00,
2013-03-21 04:52:00,30.0,18.0,-100.00,NW,322,10.0,13.0,60,0.00,,,0.00,,2013-03-21 08:52:00,
2013-03-21 05:02:00,30.0,17.0,-100.00,NNW,340,13.0,17.0,58,0.00,,,0.00,,2013-03-21 09:02:00,
2013-03-21 05:11:00,30.0,17.0,-100.00,NNW,340,13.0,17.0,58,0.00,,,0.00,,2013-03-21 09:11:00,
2013-03-21 05:22:00,30.0,17.0,-100.00,NNW,340,13.0,17.0,58,0.00,,,0.00,,2013-03-21 09:22:00,
2013-03-21 05:33:00,30.0,16.0,-100.00,NNW,332,11.0,14.0,57,0.00,,,0.00,,2013-03-21 09:33:00,
2013-03-21 05:43:00,30.0,16.0,-100.00,NNW,332,11.0,14.0,57,0.00,,,0.00,,2013-03-21 09:43:00,
2013-03-21 05:53:00,30.0,16.0,-100.00,NNW,332,11.0,14.0,57,0.00,,,0.00,,2013-03-21 09:53:00,
2013-03-21 06:03:00,29.0,13.0,-100.00,WNW,302,7.0,14.0,51,0.00,,,0.00,,2013-03-21 10:03:00,
2013-03-21 06:12:00,29.0,13.0,-100.00,WNW,302,7.0,14.0,51,0.00,,,0.00,,2013-03-21 10:12:00,
2013-03-21 06:23:00,29.0,13.0,-100.00,WNW,302,7.0,14.0,51,0.00,,,0.00,,2013-03-21 10:23:00,
2013-03-21 06:43:00,28.0,12.0,-100.00,NNW,332,7.0,10.0,51,0.00,,,0.00,,2013-03-21 10:43:00,
2013-03-21 06:53:00,28.0,12.0,-100.00,NNW,332,7.0,10.0,51,0.00,,,0.00,,2013-03-21 10:53:00,
2013-03-21 07:03:00,27.0,11.0,-100.00,WNW,299,6.0,9.0,50,0.00,,,0.00,,2013-03-21 11:03:00,
2013-03-21 07:13:00,27.0,11.0,-100.00,WNW,299,6.0,9.0,50,0.00,,,0.00,,2013-03-21 11:13:00,
2013-03-21 07:22:00,27.0,12.0,-100.00,NW,309,9.0,12.0,52,0.00,,,0.00,,2013-03-21 11:22:00,
2013-03-21 07:33:00,27.0,12.0,-100.00,NW,309,9.0,12.0,52,0.00,,,0.00,,2013-03-21 11:33:00,
2013-03-21 07:43:00,27.0,12.0,-100.00,NW,309,9.0,12.0,52,0.00,,,0.00,,2013-03-21 11:43:00,
2013-03-21 08:03:00,26.0,11.0,-100.00,NW,322,6.0,8.0,54,0.00,,,0.00,,2013-03-21 12:03:00,
2013-03-21 08:13:00,26.0,11.0,-100.00,NW,322,6.0,8.0,54,0.00,,,0.00,,2013-03-21 12:13:00,
2013-03-21 08:22:00,25.0,8.0,-100.00,NNW,342,11.0,15.0,47,0.00,,,0.00,,2013-03-21 12:22:00,
2013-03-21 08:33:00,25.0,8.0,-100.00,NNW,342,11.0,15.0,47,0.00,,,0.00,,2013-03-21 12:33:00,
2013-03-21 08:43:00,25.0,8.0,-100.00,NW,320,8.0,10.0,48,0.00,,,0.00,,2013-03-21 12:43:00,
2013-03-21 08:53:00,25.0,8.0,-100.00,NW,320,8.0,10.0,48,0.00,,,0.00,,2013-03-21 12:53:00,
2013-03-21 09:03:00,26.0,9.0,-100.00,NW,313,7.0,10.0,48,0.00,,,0.00,,2013-03-21 13:03:00,
2013-03-21 09:12:00,26.0,9.0,-100.00,NW,313,7.0,10.0,48,0.00,,,0.00,,2013-03-21 13:12:00,
2013-03-21 09:22:00,26.0,8.0,-100.00,NNW,330,7.0,9.0,48,0.00,,,0.00,,2013-03-21 13:22:00,
2013-03-21 09:32:00,26.0,8.0,-100.00,NNW,330,7.0,9.0,48,0.00,,,0.00,,2013-03-21 13:32:00,
2013-03-21 09:42:00,26.0,9.0,-100.00,NW,323,7.0,9.0,48,0.00,,,0.00,,2013-03-21 13:42:00,
2013-03-21 09:53:00,26.0,9.0,-100.00,NW,323,7.0,9.0,48,0.00,,,0.00,,2013-03-21 13:53:00,
2013-03-21 10:02:00,26.0,8.0,-100.00,NNW,337,6.0,8.0,46,0.00,,,0.00,,2013-03-21 14:02:00,
2013-03-21 10:12:00,26.0,8.0,-100.00,NNW,337,6.0,8.0,46,0.00,,,0.00,,2013-03-21 14:12:00,
2013-03-21 10:22:00,26.0,8.0,-100.00,NNW,337,6.0,8.0,46,0.00,,,0.00,,2013-03-21 14:22:00,
2013-03-21 10:32:00,26.0,8.0,-100.00,NNW,339,14.0,18.0,46,0.00,,,0.00,,2013-03-21 14:32:00,
2013-03-21 10:42:00,26.0,7.0,-100.00,NW,306,6.0,11.0,44,0.00,,,0.00,,2013-03-21 14:42:00,
2013-03-21 10:52:00,26.0,7.0,-100.00,NW,306,6.0,11.0,44,0.00,,,0.00,,2013-03-21 14:52:00,
2013-03-21 11:04:00,26.0,7.0,-100.00,NW,306,6.0,11.0,44,0.00,,,0.00,,2013-03-21 15:04:00,
2013-03-21 11:12:00,26.0,5.0,-100.00,NW,322,16.0,22.0,39,0.00,,,0.00,,2013-03-21 15:12:00,
2013-03-21 11:22:00,26.0,5.0,-100.00,NW,322,16.0,22.0,39,0.00,,,0.00,,2013-03-21 15:22:00,
2013-03-21 11:43:00,26.0,9.0,-100.00,NW,318,8.0,12.0,49,0.00,,,0.00,,2013-03-21 15:43:00,
2013-03-21 11:53:00,26.0,9.0,-100.00,NW,318,8.0,12.0,49,0.00,,,0.00,,2013-03-21 15:53:00,
2013-03-21 12:03:00,26.0,6.0,-100.00,NW,323,16.0,21.0,42,0.00,,,0.00,,2013-03-21 16:03:00,
2013-03-21 12:13:00,26.0,6.0,-100.00,NW,323,16.0,21.0,42,0.00,,,0.00,,2013-03-21 16:13:00,
2013-03-21 12:23:00,27.0,6.0,-100.00,WNW,291,11.0,16.0,41,0.00,,,0.00,,2013-03-21 16:23:00,
2013-03-21 12:33:00,27.0,6.0,-100.00,WNW,291,11.0,16.0,41,0.00,,,0.00,,2013-03-21 16:33:00,
2013-03-21 12:42:00,27.0,5.0,-100.00,WNW,299,9.0,17.0,38,0.00,,,0.00,,2013-03-21 16:42:00,
2013-03-21 12:53:00,27.0,5.0,-100.00,WNW,299,9.0,17.0,38,0.00,,,0.00,,2013-03-21 16:53:00,
2013-03-21 13:03:00,27.0,6.0,-100.00,NW,311,6.0,9.0,39,0.00,,,0.00,,2013-03-21 17:03:00,
2013-03-21 13:12:00,27.0,6.0,-100.00,NW,311,6.0,9.0,39,0.00,,,0.00,,2013-03-21 17:12:00,
2013-03-21 13:23:00,28.0,6.0,-100.00,NNW,333,12.0,16.0,38,0.00,,,0.00,,2013-03-21 17:23:00,
2013-03-21 13:33:00,28.0,6.0,-100.00,NNW,333,12.0,16.0,38,0.00,,,0.00,,2013-03-21 17:33:00,
2013-03-21 13:43:00,29.0,6.0,-100.00,NW,312,10.0,12.0,37,0.00,,,0.00,,2013-03-21 17:43:00,
2013-03-21 13:52:00,29.0,6.0,-100.00,NW,312,10.0,12.0,37,0.00,,,0.00,,2013-03-21 17:52:00,
2013-03-21 14:02:00,28.0,6.0,-100.00,NW,308,10.0,15.0,38,0.00,,,0.00,,2013-03-21 18:02:00,
2013-03-21 14:12:00,28.0,6.0,-100.00,NW,308,10.0,15.0,38,0.00,,,0.00,,2013-03-21 18:12:00,
2013-03-21 14:23:00,29.0,5.0,-100.00,NW,325,10.0,14.0,36,0.00,,,0.00,,2013-03-21 18:23:00,
2013-03-21 14:32:00,29.0,5.0,-100.00,NW,325,10.0,14.0,36,0.00,,,0.00,,2013-03-21 18:32:00,
2013-03-21 14:42:00,28.0,8.0,-100.00,NNW,332,11.0,16.0,43,0.00,,,0.00,,2013-03-21 18:42:00,
2013-03-21 14:52:00,28.0,8.0,-100.00,NNW,332,11.0,16.0,43,0.00,,,0.00,,2013-03-21 18:52:00,
2013-03-21 15:02:00,28.0,8.0,-100.00,NW,323,11.0,17.0,42,0.00,,,0.00,,2013-03-21 19:02:00,
2013-03-21 15:12:00,28.0,8.0,-100.00,NW,323,11.0,17.0,42,0.00,,,0.00,,2013-03-21 19:12:00,
2013-03-21 15:23:00,28.0,8.0,-100.00,NW,323,11.0,17.0,42,0.00,,,0.00,,2013-03-21 19:23:00,
2013-03-21 15:32:00,29.0,9.0,-100.00,NW,309,10.0,15.0,42,0.00,,,0.00,,2013-03-21 19:32:00,
2013-03-21 15:43:00,30.0,5.0,-100.00,NW,308,16.0,22.0,34,0.00,,,0.00,,2013-03-21 19:43:00,
2013-03-21 15:52:00,30.0,5.0,-100.00,NW,308,16.0,22.0,34,0.00,,,0.00,,2013-03-21 19:52:00,
2013-03-21 16:02:00,32.0,6.0,-100.00,NW,319,16.0,20.0,33,0.00,,,0.00,,2013-03-21 20:02:00,
2013-03-21 16:13:00,32.0,6.0,-100.00,NW,319,16.0,20.0,33,0.00,,,0.00,,2013-03-21 20:13:00,
2013-03-21 16:23:00,32.0,6.0,-100.00,NW,319,16.0,20.0,33,0.00,,,0.00,,2013-03-21 20:23:00,
2013-03-21 16:43:00,30.0,9.0,-100.00,NW,326,13.0,20.0,41,0.00,,,0.00,,2013-03-21 20:43:00,
2013-03-21 16:53:00,30.0,9.0,-100.00,NW,326,13.0,20.0,41,0.00,,,0.00,,2013-03-21 20:53:00,
2013-03-21 17:03:00,30.0,7.0,-100.00,NW,320,10.0,14.0,38,0.00,,,0.00,,2013-03-21 21:03:00,
2013-03-21 17:12:00,30.0,7.0,-100.00,NW,320,10.0,14.0,38,0.00,,,0.00,,2013-03-21 21:12:00,
2013-03-21 17:23:00,30.0,7.0,-100.00,NW,320,10.0,14.0,38,0.00,,,0.00,,2013-03-21 21:23:00,
2013-03-21 17:33:00,29.0,8.0,-100.00,NW,318,10.0,14.0,39,0.00,,,0.00,,2013-03-21 21:33:00,
2013-03-21 17:43:00,29.0,9.0,-100.00,NW,326,12.0,15.0,42,0.00,,,0.00,,2013-03-21 21:43:00,
2013-03-21 17:53:00,29.0,9.0,-100.00,NW,326,12.0,15.0,42,0.00,,,0.00,,2013-03-21 21:53:00,
2013-03-21 18:03:00,28.0,11.0,-100.00,NNW,329,11.0,14.0,47,0.00,,,0.00,,2013-03-21 22:03:00,
2013-03-21 18:13:00,28.0,11.0,-100.00,NNW,329,11.0,14.0,47,0.00,,,0.00,,2013-03-21 22:13:00,
2013-03-21 18:23:00,28.0,10.0,-100.00,NW,312,13.0,20.0,46,0.00,,,0.00,,2013-03-21 22:23:00,
2013-03-21 18:33:00,28.0,10.0,-100.00,NW,312,13.0,20.0,46,0.00,,,0.00,,2013-03-21 22:33:00,
2013-03-21 18:42:00,29.0,8.0,-100.00,NW,326,12.0,18.0,41,0.00,,,0.00,,2013-03-21 22:42:00,
2013-03-21 18:53:00,29.0,8.0,-100.00,NW,326,12.0,18.0,41,0.00,,,0.00,,2013-03-21 22:53:00,
2013-03-21 19:02:00,29.0,7.0,-100.00,NW,326,14.0,19.0,40,0.00,,,0.00,,2013-03-21 23:02:00,
2013-03-21 19:12:00,29.0,7.0,-100.00,NW,326,14.0,19.0,40,0.00,,,0.00,,2013-03-21 23:12:00,
2013-03-21 19:22:00,28.0,8.0,-100.00,NNW,328,11.0,15.0,42,0.00,,,0.00,,2013-03-21 23:22:00,
2013-03-21 19:33:00,28.0,8.0,-100.00,NNW,328,11.0,15.0,42,0.00,,,0.00,,2013-03-21 23:33:00,
2013-03-21 19:43:00,27.0,9.0,-100.00,NW,311,7.0,11.0,46,0.00,,,0.00,,2013-03-21 23:43:00,
2013-03-21 19:53:00,27.0,9.0,-100.00,NW,311,7.0,11.0,46,0.00,,,0.00,,2013-03-21 23:53:00,
2013-03-21 20:03:00,27.0,9.0,-100.00,NW,311,7.0,11.0,46,0.00,,,0.00,,2013-03-22 00:03:00,
2013-03-21 20:12:00,27.0,9.0,-100.00,NW,316,10.0,16.0,46,0.00,,,0.00,,2013-03-22 00:12:00,
2013-03-21 20:22:00,27.0,9.0,-100.00,NW,318,8.0,12.0,47,0.00,,,0.00,,2013-03-22 00:22:00,
2013-03-21 20:32:00,27.0,9.0,-100.00,NW,318,8.0,12.0,47,0.00,,,0.00,,2013-03-22 00:32:00,
2013-03-21 20:42:00,27.0,9.0,-100.00,NW,318,8.0,12.0,47,0.00,,,0.00,,2013-03-22 00:42:00,
2013-03-21 20:52:00,26.0,8.0,-100.00,NW,318,14.0,19.0,45,0.00,,,0.00,,2013-03-22 00:52:00,
2013-03-21 21:03:00,26.0,8.0,-100.00,NNW,337,7.0,10.0,46,0.00,,,0.00,,2013-03-22 01:03:00,
2013-03-21 21:12:00,26.0,8.0,-100.00,NNW,337,7.0,10.0,46,0.00,,,0.00,,2013-03-22 01:12:00,
2013-03-21 21:22:00,26.0,8.0,-100.00,North,356,6.0,8.0,46,0.00,,,0.00,,2013-03-22 01:22:00,
2013-03-21 21:32:00,26.0,8.0,-100.00,North,356,6.0,8.0,46,0.00,,,0.00,,2013-03-22 01:32:00,
2013-03-21 21:43:00,26.0,8.0,-100.00,NW,319,3.0,6.0,46,0.00,,,0.00,,2013-03-22 01:43:00,
2013-03-21 21:53:00,26.0,8.0,-100.00,NW,319,3.0,6.0,46,0.00,,,0.00,,2013-03-22 01:53:00,
2013-03-21 22:03:00,25.0,8.0,-100.00,NE,40,3.0,6.0,48,0.00,,,0.00,,2013-03-22 02:03:00,
2013-03-21 22:12:00,25.0,8.0,-100.00,NE,40,3.0,6.0,48,0.00,,,0.00,,2013-03-22 02:12:00,
2013-03-21 22:22:00,25.0,8.0,-100.00,NE,40,3.0,6.0,48,0.00,,,0.00,,2013-03-22 02:22:00,
2013-03-21 22:32:00,25.0,9.0,-100.00,NNW,332,6.0,10.0,51,0.00,,,0.00,,2013-03-22 02:32:00,
2013-03-21 22:43:00,25.0,9.0,-100.00,NNW,332,6.0,10.0,51,0.00,,,0.00,,2013-03-22 02:43:00,
2013-03-21 22:52:00,25.0,9.0,-100.00,NNW,332,6.0,10.0,51,0.00,,,0.00,,2013-03-22 02:52:00,
2013-03-21 23:02:00,24.0,9.0,-100.00,NW,305,9.0,15.0,51,0.00,,,0.00,,2013-03-22 03:02:00,
2013-03-21 23:12:00,24.0,9.0,-100.00,NW,305,9.0,15.0,51,0.00,,,0.00,,2013-03-22 03:12:00,
2013-03-21 23:22:00,24.0,9.0,-100.00,NW,318,8.0,11.0,52,0.00,,,0.00,,2013-03-22 03:22:00,
2013-03-21 23:33:00,24.0,9.0,-100.00,NW,311,8.0,11.0,52,0.00,,,0.00,,2013-03-22 03:33:00,
2013-03-21 23:43:00,24.0,9.0,-100.00,NW,311,8.0,11.0,52,0.00,,,0.00,,2013-03-22 03:43:00,
2013-03-21 23:53:00,24.0,9.0,-100.00,NW,311,8.0,11.0,52,0.00,,,0.00,,2013-03-22 03:53:00,